createdAt,value
2022-11-28T00:01:37.041Z,7.59
2022-11-28T00:04:05.750Z,7.57
2022-11-28T00:06:32.613Z,7.57
2022-11-28T00:09:00.262Z,7.52
2022-11-28T00:11:27.444Z,7.44
2022-11-28T00:13:54.293Z,7.41
2022-11-28T00:16:22.669Z,7.44
2022-11-28T00:18:51.220Z,7.40
2022-11-28T00:21:18.367Z,7.42
2022-11-28T00:23:48.886Z,7.35
2022-11-28T00:26:25.169Z,7.39
2022-11-28T00:28:52.546Z,7.32
2022-11-28T00:31:22.522Z,7.35
2022-11-28T00:33:49.585Z,7.33
2022-11-28T00:36:16.554Z,7.26
2022-11-28T00:38:43.535Z,7.29
2022-11-28T00:41:14.787Z,7.23
2022-11-28T00:43:42.884Z,7.19
2022-11-28T00:46:10.179Z,7.21
2022-11-28T00:48:37.116Z,7.24
2022-11-28T00:51:08.591Z,7.25
2022-11-28T00:53:35.880Z,7.19
2022-11-28T00:56:06.328Z,7.16
2022-11-28T00:58:36.953Z,7.18
2022-11-28T01:01:11.983Z,7.19
2022-11-28T01:03:40.815Z,7.16
2022-11-28T01:06:08.523Z,7.15
2022-11-28T01:08:35.416Z,7.14
2022-11-28T01:11:03.055Z,7.12
2022-11-28T01:13:29.758Z,7.05
2022-11-28T01:15:58.664Z,7.08
2022-11-28T01:18:25.377Z,7.10
2022-11-28T01:20:51.956Z,7.10
2022-11-28T01:23:19.304Z,7.08
2022-11-28T01:25:46.052Z,7.11
2022-11-28T01:28:12.770Z,7.11
2022-11-28T01:30:39.426Z,7.09
2022-11-28T01:33:06.225Z,7.10
2022-11-28T01:35:32.844Z,7.08
2022-11-28T01:37:59.635Z,7.06
2022-11-28T01:40:26.419Z,7.09
2022-11-28T01:42:53.051Z,7.09
2022-11-28T01:45:24.386Z,7.09
2022-11-28T01:47:53.700Z,7.10
2022-11-28T01:50:22.365Z,7.12
2022-11-28T01:52:55.427Z,7.16
2022-11-28T01:55:26.731Z,7.15
2022-11-28T01:57:55.364Z,7.10
2022-11-28T02:00:22.828Z,7.14
2022-11-28T02:03:00.873Z,7.08
2022-11-28T02:05:27.829Z,7.05
2022-11-28T02:07:54.547Z,7.07
2022-11-28T02:10:29.154Z,7.08
2022-11-28T02:13:22.475Z,7.16
2022-11-28T02:16:01.889Z,7.18
2022-11-28T02:18:53.449Z,7.10
2022-11-28T02:21:34.132Z,7.09
2022-11-28T02:24:31.744Z,7.13
2022-11-28T02:27:17.308Z,7.18
2022-11-28T02:29:53.575Z,7.16
2022-11-28T02:32:53.676Z,7.21
2022-11-28T02:35:26.147Z,7.14
2022-11-28T02:38:11.651Z,7.23
2022-11-28T02:40:54.393Z,7.27
2022-11-28T02:43:40.821Z,7.24
2022-11-28T02:46:16.955Z,7.27
2022-11-28T02:49:01.824Z,7.31
2022-11-28T02:51:36.244Z,7.30
2022-11-28T02:54:05.673Z,7.31
2022-11-28T02:56:32.314Z,7.34
2022-11-28T02:58:58.916Z,7.26
2022-11-28T03:01:35.286Z,7.25
2022-11-28T03:04:34.304Z,7.24
2022-11-28T03:07:18.415Z,7.33
2022-11-28T03:10:03.446Z,7.31
2022-11-28T03:12:50.227Z,7.34
2022-11-28T03:15:21.794Z,7.40
2022-11-28T03:18:13.987Z,7.35
2022-11-28T03:20:46.526Z,7.33
2022-11-28T03:23:26.680Z,7.34
2022-11-28T03:25:59.081Z,7.34
2022-11-28T03:28:28.835Z,7.34
2022-11-28T03:31:04.251Z,7.42
2022-11-28T03:33:35.957Z,7.33
2022-11-28T03:36:14.501Z,7.42
2022-11-28T03:38:45.331Z,7.31
2022-11-28T03:41:20.643Z,7.34
2022-11-28T03:43:52.721Z,7.29
2022-11-28T03:46:22.379Z,7.34
2022-11-28T03:48:53.397Z,7.37
2022-11-28T03:51:42.955Z,7.41
2022-11-28T03:54:33.402Z,7.39
2022-11-28T03:57:21.990Z,7.41
2022-11-28T03:59:53.961Z,7.41
2022-11-28T04:02:55.404Z,7.45
2022-11-28T04:05:29.924Z,7.40
2022-11-28T04:08:17.556Z,7.40
2022-11-28T04:11:05.323Z,7.48
2022-11-28T04:13:50.903Z,7.49
2022-11-28T04:16:24.035Z,7.54
2022-11-28T04:19:06.779Z,7.52
2022-11-28T04:21:48.152Z,7.57
2022-11-28T04:24:22.868Z,7.54
2022-11-28T04:26:55.168Z,7.57
2022-11-28T04:29:24.435Z,7.55
2022-11-28T04:31:56.785Z,7.58
2022-11-28T04:34:26.329Z,7.61
2022-11-28T04:36:56.183Z,7.60
2022-11-28T04:39:26.216Z,7.57
2022-11-28T04:42:18.011Z,7.44
2022-11-28T04:44:54.001Z,7.50
2022-11-28T04:47:22.334Z,7.52
2022-11-28T04:49:49.479Z,7.50
2022-11-28T04:52:35.501Z,7.52
2022-11-28T04:55:11.998Z,7.52
2022-11-28T04:57:45.505Z,7.46
2022-11-28T05:00:15.301Z,7.53
2022-11-28T05:02:44.086Z,7.50
2022-11-28T05:05:14.914Z,7.49
2022-11-28T05:07:41.617Z,7.51
2022-11-28T05:10:10.490Z,7.57
2022-11-28T05:12:37.423Z,7.56
2022-11-28T05:15:05.252Z,7.50
2022-11-28T05:17:31.877Z,7.59
2022-11-28T05:19:58.563Z,7.60
2022-11-28T05:22:25.201Z,7.55
2022-11-28T05:24:52.592Z,7.58
2022-11-28T05:27:19.211Z,7.51
2022-11-28T05:29:51.937Z,7.56
2022-11-28T05:32:21.031Z,7.61
2022-11-28T05:34:47.616Z,7.60
2022-11-28T05:37:14.520Z,7.63
2022-11-28T05:39:41.425Z,7.55
2022-11-28T05:42:08.351Z,7.50
2022-11-28T05:44:35.058Z,7.54
2022-11-28T05:47:01.794Z,7.54
2022-11-28T05:49:28.945Z,7.55
2022-11-28T05:51:55.804Z,7.58
2022-11-28T05:54:22.456Z,7.53
2022-11-28T05:56:49.105Z,7.58
2022-11-28T05:59:15.778Z,7.66
2022-11-28T06:01:42.603Z,7.63
2022-11-28T06:04:12.319Z,7.57
2022-11-28T06:06:39.896Z,7.58
2022-11-28T06:45:35.852Z,7.44
2022-11-28T06:48:02.718Z,7.39
2022-11-28T06:50:29.372Z,7.41
2022-11-28T06:52:56.188Z,7.44
2022-11-28T06:55:22.801Z,7.37
2022-11-28T06:57:49.601Z,7.38
2022-11-28T07:00:17.393Z,7.29
2022-11-28T07:02:44.247Z,7.33
2022-11-28T07:05:10.989Z,7.30
2022-11-28T07:07:50.250Z,7.35
2022-11-28T07:10:20.408Z,7.35
2022-11-28T07:12:47.004Z,7.29
2022-11-28T07:15:13.609Z,7.27
2022-11-28T07:17:40.487Z,7.27
2022-11-28T07:20:07.974Z,7.21
2022-11-28T07:22:35.004Z,7.27
2022-11-28T07:25:01.702Z,7.27
2022-11-28T07:27:28.337Z,7.33
2022-11-28T07:29:55.358Z,7.19
2022-11-28T07:32:21.979Z,7.24
2022-11-28T07:34:50.222Z,7.31
2022-11-28T07:37:17.099Z,7.36
2022-11-28T07:39:46.660Z,7.40
2022-11-28T07:42:13.270Z,7.40
2022-11-28T07:44:39.952Z,7.42
2022-11-28T07:47:06.663Z,7.42
2022-11-28T07:49:33.462Z,7.48
2022-11-28T07:52:00.117Z,7.49
2022-11-28T07:54:26.944Z,7.51
2022-11-28T07:59:40.707Z,7.44
2022-11-28T08:02:07.526Z,7.40
2022-11-28T08:04:34.498Z,7.55
2022-11-28T08:07:01.173Z,7.60
2022-11-28T08:09:28.181Z,7.57
2022-11-28T08:11:54.805Z,7.65
2022-11-28T08:14:21.497Z,7.72
2022-11-28T08:16:49.499Z,7.76
2022-11-28T08:19:16.279Z,7.73
2022-11-28T08:21:43.603Z,7.70
2022-11-28T08:24:11.454Z,7.68
2022-11-28T08:26:40.803Z,7.71
2022-11-28T08:29:07.655Z,7.75
2022-11-28T08:31:37.440Z,7.80
2022-11-28T08:34:07.515Z,7.90
2022-11-28T08:36:34.194Z,7.95
2022-11-28T08:39:30.061Z,7.99
2022-11-28T08:42:00.174Z,7.96
2022-11-28T08:44:30.389Z,7.99
2022-11-28T08:46:57.342Z,7.89
2022-11-28T08:49:24.003Z,7.88
2022-11-28T08:51:50.576Z,7.70
2022-11-28T08:54:17.204Z,7.87
2022-11-28T08:56:45.476Z,7.90
2022-11-28T08:59:12.145Z,7.85
2022-11-28T09:01:39.585Z,7.95
2022-11-28T09:04:06.478Z,7.92
2022-11-28T09:06:38.728Z,8.08
2022-11-28T09:09:05.570Z,8.04
2022-11-28T09:11:32.990Z,8.10
2022-11-28T09:14:00.488Z,8.05
2022-11-28T09:16:27.163Z,7.97
2022-11-28T09:18:57.406Z,8.01
2022-11-28T09:21:24.121Z,8.05
2022-11-28T09:23:50.775Z,8.04
2022-11-28T09:26:20.084Z,7.95
2022-11-28T09:28:47.363Z,8.13
2022-11-28T09:31:15.483Z,8.16
2022-11-28T09:33:43.022Z,8.08
2022-11-28T09:36:15.404Z,8.17
2022-11-28T09:38:42.134Z,8.22
2022-11-28T09:41:29.013Z,8.16
2022-11-28T09:44:01.699Z,8.18
2022-11-28T09:46:34.218Z,8.26
2022-11-28T09:49:04.733Z,8.25
2022-11-28T09:51:53.157Z,8.22
2022-11-28T09:54:22.988Z,8.27
2022-11-28T09:56:50.510Z,8.27
2022-11-28T09:59:25.671Z,8.28
2022-11-28T10:02:17.983Z,8.27
2022-11-28T10:05:09.984Z,8.32
2022-11-28T10:08:04.611Z,8.29
2022-11-28T10:10:43.395Z,8.22
2022-11-28T10:14:06.801Z,8.28
2022-11-28T10:16:54.095Z,8.22
2022-11-28T10:19:53.992Z,8.19
2022-11-28T10:22:37.220Z,8.27
2022-11-28T10:25:17.953Z,8.20
2022-11-28T10:27:46.120Z,8.19
2022-11-28T10:30:25.161Z,8.16
2022-11-28T10:32:54.436Z,8.18
2022-11-28T10:35:33.124Z,8.15
2022-11-28T10:37:59.868Z,8.01
2022-11-28T10:40:39.681Z,8.13
2022-11-28T10:43:19.041Z,8.15
2022-11-28T10:45:48.354Z,8.11
2022-11-28T10:48:41.551Z,8.18
2022-11-28T10:51:20.298Z,8.22
2022-11-28T10:54:05.851Z,8.19
2022-11-28T10:56:47.291Z,8.28
2022-11-28T11:00:02.798Z,8.17
2022-11-28T11:02:43.400Z,8.05
2022-11-28T11:05:17.557Z,8.12
2022-11-28T11:07:50.628Z,8.23
2022-11-28T11:10:22.594Z,8.23
2022-11-28T11:12:52.607Z,8.08
2022-11-28T11:15:30.681Z,8.21
2022-11-28T11:17:58.665Z,8.13
2022-11-28T11:20:38.347Z,8.29
2022-11-28T11:23:17.469Z,8.32
2022-11-28T11:25:52.199Z,8.22
2022-11-28T11:28:50.150Z,8.26
2022-11-28T11:31:23.117Z,8.20
2022-11-28T11:34:21.182Z,8.25
2022-11-28T11:36:49.616Z,8.09
2022-11-28T11:39:25.597Z,8.07
2022-11-28T11:42:11.192Z,8.07
2022-11-28T11:44:39.299Z,8.16
2022-11-28T11:47:08.989Z,8.18
2022-11-28T11:50:02.800Z,8.14
2022-11-28T11:52:29.417Z,8.12
2022-11-28T11:55:18.218Z,8.13
2022-11-28T11:57:52.706Z,8.18
2022-11-28T12:00:22.687Z,8.18
2022-11-28T12:03:00.679Z,8.05
2022-11-28T12:05:46.295Z,8.08
2022-11-28T12:08:35.922Z,8.14
2022-11-28T12:11:17.818Z,8.18
2022-11-28T12:13:44.891Z,8.15
2022-11-28T12:16:20.409Z,8.22
2022-11-28T12:18:53.349Z,8.22
2022-11-28T12:21:51.191Z,8.13
2022-11-28T12:24:45.650Z,8.19
2022-11-28T12:27:46.254Z,8.07
2022-11-28T12:30:25.029Z,8.07
2022-11-28T12:33:28.710Z,8.14
2022-11-28T12:36:13.863Z,8.18
2022-11-28T12:39:25.252Z,8.18
2022-11-28T12:42:05.567Z,8.17
2022-11-28T12:45:02.404Z,7.98
2022-11-28T12:47:57.798Z,8.00
2022-11-28T12:50:35.400Z,7.91
2022-11-28T12:53:01.950Z,7.88
2022-11-28T12:55:52.983Z,7.78
2022-11-28T12:58:29.814Z,7.80
2022-11-28T13:01:04.566Z,7.81
2022-11-28T13:03:50.284Z,7.85
2022-11-28T13:06:34.000Z,7.86
2022-11-28T13:09:15.185Z,7.96
2022-11-28T13:12:00.540Z,7.98
2022-11-28T13:14:50.274Z,8.01
2022-11-28T13:17:22.588Z,7.91
2022-11-28T13:20:02.608Z,7.98
2022-11-28T13:23:04.799Z,7.86
2022-11-28T13:25:48.838Z,7.94
2022-11-28T13:28:28.341Z,8.02
2022-11-28T13:31:07.689Z,8.04
2022-11-28T13:33:53.683Z,7.93
2022-11-28T13:39:41.769Z,7.86
2022-11-28T13:42:59.343Z,7.90
2022-11-28T13:45:32.502Z,7.86
2022-11-28T13:48:00.875Z,7.70
2022-11-28T13:50:39.607Z,7.69
2022-11-28T13:53:06.260Z,7.79
2022-11-28T13:55:48.687Z,7.84
2022-11-28T13:58:40.324Z,7.85
2022-11-28T14:01:07.581Z,7.80
2022-11-28T14:03:44.239Z,7.76
2022-11-28T14:06:15.221Z,7.63
2022-11-28T14:08:44.940Z,7.74
2022-11-28T14:11:34.047Z,7.67
2022-11-28T14:14:19.226Z,7.66
2022-11-28T14:17:10.451Z,7.56
2022-11-28T14:19:56.059Z,7.56
2022-11-28T14:22:33.858Z,7.61
2022-11-28T14:25:31.004Z,7.52
2022-11-28T14:28:01.857Z,7.53
2022-11-28T14:30:41.975Z,7.48
2022-11-28T14:33:36.804Z,7.49
2022-11-28T14:36:21.639Z,7.48
2022-11-28T14:39:11.438Z,7.40
2022-11-28T14:42:03.701Z,7.39
2022-11-28T14:48:30.337Z,7.31
2022-11-28T14:51:01.808Z,7.28
2022-11-28T14:53:37.465Z,7.23
2022-11-28T14:56:16.490Z,7.20
2022-11-28T14:58:50.782Z,7.23
2022-11-28T15:01:34.971Z,7.15
2022-11-28T15:04:38.771Z,7.04
2022-11-28T15:07:32.011Z,7.12
2022-11-28T15:10:10.424Z,7.13
2022-11-28T15:12:52.088Z,7.04
2022-11-28T15:15:20.455Z,6.90
2022-11-28T15:17:51.535Z,7.00
2022-11-28T15:20:26.170Z,7.05
2022-11-28T15:22:58.039Z,7.01
2022-11-28T15:25:26.098Z,6.99
2022-11-28T15:27:54.103Z,6.97
2022-11-28T15:30:26.985Z,6.90
2022-11-28T15:33:00.410Z,6.77
2022-11-28T15:35:29.099Z,6.77
2022-11-28T15:37:58.351Z,6.77
2022-11-28T15:40:30.866Z,6.86
2022-11-28T15:42:59.771Z,6.86
2022-11-28T15:45:37.190Z,6.83
2022-11-28T15:48:05.845Z,6.81
2022-11-28T15:50:34.220Z,6.89
2022-11-28T15:53:07.451Z,6.90
2022-11-28T15:55:34.792Z,6.90
2022-11-28T15:58:28.791Z,6.84
2022-11-28T16:01:25.080Z,6.73
2022-11-28T16:04:21.037Z,6.60
2022-11-28T16:07:06.625Z,6.57
2022-11-28T16:09:35.815Z,6.55
2022-11-28T16:12:07.699Z,6.50
2022-11-28T16:14:44.293Z,6.52
2022-11-28T16:17:19.779Z,6.46
2022-11-28T16:19:46.744Z,6.38
2022-11-28T16:22:19.844Z,6.28
2022-11-28T16:24:50.562Z,6.27
2022-11-28T16:27:26.780Z,6.27
2022-11-28T16:29:53.430Z,6.18
2022-11-28T16:32:32.239Z,6.10
2022-11-28T16:35:02.516Z,6.17
2022-11-28T16:37:31.057Z,6.16
2022-11-28T16:40:12.691Z,6.15
2022-11-28T16:42:40.983Z,6.18
2022-11-28T16:45:22.068Z,6.06
2022-11-28T16:47:55.969Z,6.03
2022-11-28T16:50:24.827Z,5.88
2022-11-28T16:52:54.200Z,5.89
2022-11-28T16:55:27.069Z,5.85
2022-11-28T16:58:04.025Z,5.88
2022-11-28T17:00:30.770Z,5.83
2022-11-28T17:02:57.394Z,5.84
2022-11-28T17:05:24.873Z,5.84
2022-11-28T17:07:53.409Z,5.78
2022-11-28T17:10:20.108Z,5.75
2022-11-28T17:12:46.791Z,5.81
2022-11-28T17:15:19.413Z,5.82
2022-11-28T17:17:46.150Z,5.76
2022-11-28T17:20:13.219Z,5.79
2022-11-28T17:22:45.793Z,5.80
2022-11-28T17:25:20.688Z,5.71
2022-11-28T17:27:48.379Z,5.80
2022-11-28T17:30:19.429Z,5.75
2022-11-28T17:32:52.003Z,5.72
2022-11-28T17:35:23.667Z,5.73
2022-11-28T17:37:50.347Z,5.71
2022-11-28T17:40:36.723Z,5.65
2022-11-28T17:43:03.787Z,5.70
2022-11-28T17:45:33.820Z,5.62
2022-11-28T17:48:00.739Z,5.70
2022-11-28T17:50:27.605Z,5.60
2022-11-28T17:52:54.438Z,5.68
2022-11-28T20:53:33.433Z,5.04
2022-11-28T20:56:02.224Z,4.98
2022-11-28T20:58:29.480Z,4.96
2022-11-28T21:00:59.349Z,5.17
2022-11-28T21:03:28.409Z,5.21
2022-11-28T21:06:01.498Z,5.19
2022-11-28T21:08:31.454Z,5.19
2022-11-28T21:11:11.044Z,5.37
2022-11-28T21:13:38.733Z,5.43
2022-11-28T21:16:12.977Z,5.50
2022-11-28T21:18:43.625Z,5.55
2022-11-28T21:21:21.541Z,5.59
2022-11-28T21:23:48.467Z,5.65
2022-11-28T21:26:20.541Z,5.64
2022-11-28T21:28:50.040Z,5.66
2022-11-28T21:31:20.037Z,5.76
2022-11-28T21:33:51.268Z,5.75
2022-11-28T21:36:21.523Z,5.71
2022-11-28T21:38:53.184Z,5.55
2022-11-28T21:41:22.074Z,5.55
2022-11-28T21:43:49.366Z,5.59
2022-11-28T21:46:16.197Z,5.56
2022-11-28T21:48:43.414Z,5.60
2022-11-28T21:51:17.135Z,5.57
2022-11-28T21:53:43.986Z,5.55
2022-11-28T21:56:11.883Z,5.60
2022-11-28T21:58:39.081Z,5.66
2022-11-28T22:01:08.885Z,5.65
2022-11-28T22:03:37.024Z,5.68
2022-11-28T22:06:18.217Z,5.65
2022-11-28T22:08:45.576Z,5.66
2022-11-28T22:11:13.419Z,5.63
2022-11-28T22:13:47.927Z,5.55
2022-11-28T22:16:17.721Z,5.43
2022-11-28T22:18:45.595Z,5.64
2022-11-28T22:21:49.906Z,5.66
2022-11-28T22:23:59.980Z,5.65
2022-11-28T22:26:44.673Z,5.70
2022-11-28T22:29:12.571Z,5.77
2022-11-28T22:31:39.445Z,5.78
2022-11-28T22:34:06.304Z,5.68
2022-11-28T22:36:34.279Z,5.58
2022-11-28T22:39:03.582Z,5.46
2022-11-28T22:41:30.458Z,5.55
2022-11-28T22:44:01.166Z,5.69
2022-11-28T22:46:30.491Z,5.78
2022-11-28T22:49:03.024Z,5.78
2022-11-28T22:51:30.925Z,5.87
2022-11-28T22:54:00.497Z,5.90
2022-11-28T22:56:29.548Z,5.84
2022-11-28T22:58:57.780Z,5.75
2022-11-28T23:01:26.930Z,5.72
2022-11-28T23:03:54.633Z,5.85
2022-11-28T23:06:25.728Z,5.88
2022-11-28T23:08:56.580Z,5.94
2022-11-28T23:11:28.108Z,5.90
2022-11-28T23:13:57.443Z,5.96
2022-11-28T23:16:30.820Z,5.81
2022-11-28T23:19:00.284Z,5.87
2022-11-28T23:21:30.784Z,5.89
2022-11-28T23:23:58.164Z,6.01
2022-11-28T23:26:29.342Z,6.04
2022-11-28T23:28:58.245Z,6.04
2022-11-28T23:31:27.832Z,6.09
2022-11-28T23:33:55.695Z,6.06
2022-11-28T23:36:25.304Z,6.06
2022-11-28T23:38:55.197Z,6.09
2022-11-28T23:41:21.874Z,6.10
2022-11-28T23:43:48.824Z,6.04
2022-11-28T23:46:21.817Z,6.11
2022-11-28T23:48:48.644Z,6.20
2022-11-28T23:51:17.239Z,6.14
2022-11-28T23:53:44.594Z,6.18
2022-11-28T23:56:17.771Z,6.15
2022-11-28T23:58:44.763Z,6.09
